Flight Track Log - Related Links

Times and Time Zones

All times are in EDT time to prevent confusion due to time zone crossing. See the N81TB flight status page for this flight to view local times or setup timezone preferences in your user account.

Time Position Orientation Groundspeed Altitude Reporting Facility
EDT Latitude Longitude Course Direction KTS MPH feet Rate Location/Type
Sun 12:42:03 PM 31.1772 -81.4647 North 155 178 2,500  Level Jacksonville Center
Sun 12:43:00 PM 31.4779 -81.3167 North  Level FlightAware Approximate
Sun 12:43:03 PM 31.2169 -81.4617 North 132 152 3,500  Level Jacksonville Center
Sun 12:44:03 PM 31.2586 -81.4658 355° North 143 165 4,500 1,000 Climbing Jacksonville Center
Sun 12:45:03 PM 31.2922 -81.4775 343° North 143 165 5,500 900 Climbing Jacksonville Center
Sun 12:46:03 PM 31.3342 -81.4892 347° North 148 170 6,300 1,000 Climbing Jacksonville Center
Sun 12:47:03 PM 31.3800 -81.4983 350° North 148 170 7,500 1,050 Climbing Jacksonville Center
Sun 12:48:03 PM 31.4200 -81.5097 346° North 148 170 8,400 950 Climbing Jacksonville Center
Sun 12:49:03 PM 31.4597 -81.5164 352° North 148 170 9,400 1,050 Climbing Jacksonville Center
Sun 12:50:03 PM 31.5078 -81.5256 351° North 148 170 10,500 900 Climbing Jacksonville Center
Sun 12:51:03 PM 31.5475 -81.5297 355° North 158 182 11,200 750 Climbing Jacksonville Center
Sun 12:52:03 PM 31.6019 -81.5389 352° North 168 193 12,000 800 Climbing Jacksonville Center
Sun 12:53:03 PM 31.6542 -81.5406 358° North 173 199 12,800 450 Climbing Jacksonville Center
Sun 12:54:03 PM 31.6981 -81.5472 353° North 179 206 12,900 100 Climbing Jacksonville Center
Sun 12:55:03 PM 31.7564 -81.5511 357° North 184 212 13,000 50 Climbing Jacksonville Center
Sun 12:56:03 PM 31.8047 -81.5603 351° North 191 220 13,000  Level Jacksonville Center
Sun 12:57:03 PM 31.8653 -81.5667 355° North 191 220 13,000  Level Jacksonville Center
Sun 12:58:03 PM 31.9197 -81.5758 352° North 201 231 13,000  Level Jacksonville Center
Sun 12:59:03 PM 31.9678 -81.5897 346° North 201 231 13,000  Level Jacksonville Center
Sun 01:00:03 PM 32.0244 -81.6086 344° North 196 226 13,000  Level Jacksonville Center
Sun 01:01:03 PM 32.0786 -81.6128 356° North 196 226 13,000  Level Jacksonville Center
Sun 01:03:03 PM 32.1917 -81.6308 352° North 201 231 13,000  Level Jacksonville Center
Sun 01:04:03 PM 32.2481 -81.6372 355° North 201 231 13,000  Level Jacksonville Center
Sun 01:05:03 PM 32.3003 -81.6464 352° North 201 231 13,000  Level Jacksonville Center
Sun 01:06:03 PM 32.3631 -81.6556 353° North 201 231 13,000  Level Jacksonville Center
Sun 01:08:03 PM 32.4781 -81.6711 353° North 201 231 13,000  Level Jacksonville Center
Sun 01:09:03 PM 32.5364 -81.6803 352° North 201 231 13,000  Level Jacksonville Center
Sun 01:10:03 PM 32.5889 -81.6869 354° North 201 231 13,000  Level Jacksonville Center
Sun 01:11:03 PM 32.6475 -81.7108 341° North 196 226 13,000  Level Jacksonville Center
Sun 01:12:03 PM 32.7039 -81.7150 356° North 206 237 13,000  Level Jacksonville Center
Sun 01:13:03 PM 32.7622 -81.7192 357° North 206 237 13,000  Level Jacksonville Center
Sun 01:14:03 PM 32.8189 -81.7358 346° North 206 237 13,000  Level Jacksonville Center
Sun 01:16:03 PM 32.9339 -81.7517 353° North 200 230 13,000  Level Jacksonville Center
Sun 01:17:03 PM 32.9903 -81.7633 350° North 200 230 13,000  Level Jacksonville Center
Sun 01:18:03 PM 33.0486 -81.7675 357° North 200 230 13,000  Level Jacksonville Center
Sun 01:19:03 PM 33.1053 -81.7767 352° North 200 230 13,000  Level Jacksonville Center
Sun 01:20:52 PM 33.2039 -81.7994 349° North 199 229 13,000  Level Atlanta Center
Sun 01:21:52 PM 33.2583 -81.8106 350° North 199 229 13,000  Level Atlanta Center
Sun 01:22:52 PM 33.3150 -81.8239 349° North 204 235 13,000  Level Atlanta Center
Sun 01:23:52 PM 33.3694 -81.8350 350° North 204 235 13,000  Level Atlanta Center
Sun 01:24:52 PM 33.4261 -81.8483 349° North 204 235 13,000  Level Atlanta Center
Sun 01:25:52 PM 33.4828 -81.8594 351° North 204 235 13,000  Level Atlanta Center
Sun 01:26:52 PM 33.5392 -81.8706 351° North 204 235 13,000 250 Level Atlanta Center
Sun 01:27:52 PM 33.5853 -81.8794 351° North 198 228 13,500 500 Climbing Atlanta Center
Sun 01:28:52 PM 33.6356 -81.8881 352° North 193 222 14,000 500 Climbing Atlanta Center
Sun 01:29:52 PM 33.6878 -81.8967 352° North 188 216 14,500 500 Climbing Atlanta Center
Sun 01:30:52 PM 33.7381 -81.9056 352° North 183 211 15,000 300 Climbing Atlanta Center
Sun 01:31:52 PM 33.7925 -81.9167 350° North 183 211 15,100 50 Climbing Atlanta Center
Sun 01:32:52 PM 33.8450 -81.9328 346° North 183 211 15,100  Level Atlanta Center
Sun 01:33:52 PM 33.9039 -81.9539 343° North 195 224 15,100  Level Atlanta Center
Sun 01:34:52 PM 33.9625 -81.9625 353° North 200 230 15,100  Level Atlanta Center
Sun 01:35:52 PM 34.0211 -81.9761 349° North 205 236 15,100  Level Atlanta Center
Sun 01:36:52 PM 34.0797 -81.9897 349° North 210 242 15,100  Level Atlanta Center
Sun 01:37:52 PM 34.1406 -82.0008 351° North 215 247 15,100 100 Level Atlanta Center
Sun 01:38:52 PM 34.1992 -82.0144 349° North 215 247 15,300 400 Climbing Atlanta Center
Sun 01:39:52 PM 34.2597 -82.0231 353° North 215 247 15,900 500 Climbing Atlanta Center
Sun 01:41:00 PM 34.3164 -81.9981 20° North  Level FlightAware Approximate
Sun 01:41:52 PM 34.3667 -82.0433 20° North 200 230 16,800  Level Atlanta Center
Sun 01:42:52 PM 34.4189 -82.0494 354° North 195 224 17,000 200 Climbing Atlanta Center
Sun 01:43:52 PM 34.4775 -82.0556 355° North 200 230 17,200 100 Climbing Atlanta Center
Sun 01:44:52 PM 34.5361 -82.0669 351° North 200 230 17,200 -50 Level Atlanta Center
Sun 01:45:52 PM 34.5947 -82.0756 353° North 207 238 17,100 -50 Descending Atlanta Center
Sun 01:46:52 PM 34.6553 -82.0867 21° North 212 244 17,100  Level Atlanta Center
Sun 01:47:00 PM 34.6504 -82.0490 21° North  Level FlightAware Approximate
Sun 01:47:52 PM 34.7181 -82.0981 352° North 218 251 17,100  Level Atlanta Center
Sun 01:48:52 PM 34.7789 -82.1117 350° North 218 251 17,100  Level Atlanta Center
Sun 01:49:52 PM 34.8375 -82.1206 353° North 218 251 17,100  Level Atlanta Center
Sun 01:50:52 PM 34.8961 -82.1419 343° North 218 251 17,100  Level Atlanta Center
Sun 01:51:52 PM 34.9528 -82.1583 347° North 218 251 17,100  Level Atlanta Center
Sun 01:52:52 PM 35.0114 -82.1722 349° North 224 258 17,100  Level Atlanta Center
Sun 01:53:52 PM 35.0742 -82.1836 352° North 224 258 17,100  Level Atlanta Center
Sun 01:54:52 PM 35.1328 -82.1950 351° North 219 252 17,100  Level Atlanta Center
Sun 01:55:52 PM 35.1997 -82.2061 352° North 219 252 17,100  Level Atlanta Center
Sun 01:56:52 PM 35.2603 -82.2175 351° North 219 252 17,100  Level Atlanta Center
Sun 01:57:52 PM 35.3211 -82.2264 353° North 219 252 17,100  Level Atlanta Center
Sun 01:58:52 PM 35.3797 -82.2431 347° North 219 252 17,100  Level Atlanta Center
Sun 01:59:52 PM 35.4383 -82.2569 349° North 219 252 17,100  Level Atlanta Center
Sun 02:01:00 PM 35.4992 -82.2577 359° North  Level FlightAware Approximate
Sun 02:01:52 PM 35.5597 -82.2797 359° North 219 252 17,100  Level Atlanta Center
Sun 02:02:52 PM 35.6203 -82.2914 351° North 219 252 17,100  Level Atlanta Center
Sun 02:03:52 PM 35.6725 -82.3006 352° North 219 252 17,100  Level Atlanta Center
Sun 02:04:52 PM 35.7311 -82.3069 North 219 252 17,100  Level Atlanta Center
Sun 02:05:00 PM 35.7333 -82.2967 North  Level FlightAware Approximate
Sun 02:05:52 PM 35.7917 -82.3183 351° North 214 246 17,100  Level Atlanta Center
Sun 02:07:52 PM 35.9108 -82.3339 354° North 220 253 17,100  Level Atlanta Center
Sun 02:08:52 PM 35.9694 -82.3428 353° North 220 253 17,100  Level Atlanta Center
Sun 02:09:52 PM 36.0300 -82.3519 353° North 220 253 17,100  Level Atlanta Center
Sun 02:10:52 PM 36.0886 -82.3633 351° North 220 253 17,100  Level Atlanta Center
Sun 02:11:52 PM 36.1492 -82.3725 353° North 220 253 17,100  Level Atlanta Center
Sun 02:13:00 PM 36.2063 -82.3360 357° North  Level FlightAware Approximate
Sun 02:13:52 PM 36.2683 -82.3906 357° North 215 247 17,100  Level Atlanta Center
Sun 02:15:52 PM 36.3936 -82.4114 352° North 222 255 17,100  Level Atlanta Center
Sun 02:16:52 PM 36.4522 -82.4203 353° North 217 250 17,100  Level Atlanta Center
Sun 02:17:52 PM 36.5128 -82.4319 351° North 217 250 17,100  Level Atlanta Center
Sun 02:18:52 PM 36.5733 -82.4411 353° North 217 250 17,100  Level Atlanta Center
Sun 02:20:26 PM 36.6603 -82.4525 354° North 217 250 17,100  Level Indianapolis Center
Sun 02:21:28 PM 36.7317 -82.4633 353° North 221 254 17,100  Level Indianapolis Center
Sun 02:22:29 PM 36.7911 -82.4733 352° North 218 251 17,100  Level Indianapolis Center
Sun 02:23:31 PM 36.8522 -82.4814 354° North 220 253 17,100  Level Indianapolis Center
Sun 02:24:32 PM 36.9136 -82.4900 354° North 221 254 17,100  Level Indianapolis Center
Sun 02:26:00 PM 36.9935 -82.4926 359° North  Level FlightAware Approximate
Sun 02:26:35 PM 37.0367 -82.5072 359° North 222 255 17,100  Level Indianapolis Center
Sun 02:27:37 PM 37.1092 -82.5181 353° North 224 258 17,100  Level Indianapolis Center
Sun 02:28:38 PM 37.1719 -82.5247 355° North 227 261 17,100  Level Indianapolis Center
Sun 02:29:40 PM 37.2353 -82.5208 North 228 262 17,100  Level Indianapolis Center
Sun 02:30:41 PM 37.2969 -82.5217 359° North 223 257 17,100  Level Indianapolis Center
Sun 02:31:43 PM 37.3600 -82.5164 North 225 259 17,100  Level Indianapolis Center
Sun 02:32:45 PM 37.4231 -82.5142 North 226 260 17,100  Level Indianapolis Center
Sun 02:33:46 PM 37.4867 -82.5094 North 226 260 17,100  Level Indianapolis Center
Sun 02:34:48 PM 37.5592 -82.5081 North 226 260 17,100  Level Indianapolis Center
Sun 02:35:50 PM 37.6225 -82.5064 North 228 262 17,100  Level Indianapolis Center
Sun 02:36:51 PM 37.6847 -82.5042 North 225 259 17,100  Level Indianapolis Center
Sun 02:37:53 PM 37.7472 -82.5022 North 224 258 17,100  Level Indianapolis Center
Sun 02:38:54 PM 37.8097 -82.5017 360° North 225 259 17,100  Level Indianapolis Center
Sun 02:39:56 PM 37.8722 -82.4992 North 223 257 17,100  Level Indianapolis Center
Sun 02:40:57 PM 37.9347 -82.5011 359° North 225 259 17,100  Level Indianapolis Center
Sun 02:41:59 PM 38.0069 -82.4956 North 222 255 17,100 -32 Level Indianapolis Center
Sun 02:44:02 PM 38.1286 -82.4817 North 225 259 17,000 -32 Descending Indianapolis Center
Sun 02:45:04 PM 38.1881 -82.4719 North 218 251 17,000 49 Level Indianapolis Center
Sun 02:46:05 PM 38.2472 -82.4614 North 216 249 17,100  Climbing Indianapolis Center
Sun 02:47:07 PM 38.3067 -82.4461 11° North 220 253 17,000 -48 Descending Indianapolis Center
Sun 02:48:09 PM 38.3681 -82.4336 North 222 255 17,000  Level Indianapolis Center
Sun 02:49:10 PM 38.4311 -82.4214 North 230 265 17,000  Level Indianapolis Center
Sun 02:50:12 PM 38.5078 -82.4028 11° North 235 270 17,000  Level Indianapolis Center
Sun 02:51:14 PM 38.5714 -82.3900 North 232 267 17,000  Level Indianapolis Center
Sun 02:52:15 PM 38.6317 -82.4006 352° North 220 253 17,000  Level Indianapolis Center
Sun 02:53:17 PM 38.6917 -82.4139 350° North 218 251 17,000  Level Indianapolis Center
Sun 02:54:19 PM 38.7492 -82.4378 342° North 217 250 17,000  Level Indianapolis Center
Sun 02:55:20 PM 38.8061 -82.4597 343° North 213 245 17,000  Level Indianapolis Center
Sun 02:56:22 PM 38.8644 -82.4750 348° North 213 245 17,000 32 Level Indianapolis Center
Sun 02:58:00 PM 38.9526 -82.4869 354° North  Level FlightAware Approximate
Sun 02:58:26 PM 38.9786 -82.5111 354° North 211 243 17,100  Level Indianapolis Center
Sun 02:59:27 PM 39.0428 -82.5458 337° Northwest 208 239 17,000 -49 Descending Indianapolis Center
Sun 03:00:29 PM 39.0947 -82.5744 337° Northwest 204 235 17,000 24 Level Indianapolis Center
Sun 03:02:00 PM 39.1765 -82.5870 353° North  Level FlightAware Approximate
Sun 03:03:34 PM 39.2522 -82.6608 353° North 208 239 17,100  Level Indianapolis Center
Sun 03:04:36 PM 39.3044 -82.6922 335° Northwest 205 236 17,100  Level Indianapolis Center
Sun 03:06:00 PM 39.3804 -82.6909 North  Level FlightAware Approximate
Sun 03:06:39 PM 39.4183 -82.7606 North 209 241 17,100  Level Indianapolis Center
Sun 03:07:41 PM 39.4697 -82.7911 335° Northwest 203 234 17,100  Level Indianapolis Center
Sun 03:08:43 PM 39.5222 -82.8233 335° Northwest 206 237 17,100 48 Level Indianapolis Center
Sun 03:09:00 PM 39.5538 -82.6451 353° North  Level FlightAware Approximate
Sun 03:09:45 PM 39.5728 -82.8561 333° Northwest 202 232 17,200  Level Indianapolis Center
Sun 03:10:46 PM 39.6269 -82.8811 340° North 204 235 17,200 -49 Level Indianapolis Center
Sun 03:11:48 PM 39.6872 -82.8808 360° North 213 245 17,100 -48 Descending Indianapolis Center
Sun 03:12:50 PM 39.7467 -82.8733 North 213 245 17,100  Level Indianapolis Center
Sun 03:13:52 PM 39.8164 -82.8664 North 214 246 17,100  Level Indianapolis Center
Sun 03:14:54 PM 39.8756 -82.8614 North 212 244 17,100  Level Indianapolis Center
Sun 03:15:55 PM 39.9339 -82.8378 17° North 217 250 17,100  Level Indianapolis Center
Sun 03:16:57 PM 39.9919 -82.8153 17° North 218 251 17,100  Level Indianapolis Center
Sun 03:17:59 PM 40.0489 -82.7900 19° North 217 250 17,100  Level Indianapolis Center
Sun 03:19:01 PM 40.1064 -82.7636 19° North 218 251 17,100 49 Level Indianapolis Center
Sun 03:20:02 PM 40.1600 -82.7253 29° Northeast 218 251 17,200  Climbing Indianapolis Center
Sun 03:21:04 PM 40.2169 -82.6931 23° Northeast 223 257 17,100 -48 Descending Indianapolis Center
Sun 03:22:06 PM 40.2817 -82.6578 23° Northeast 222 255 17,100  Level Indianapolis Center
Sun 03:23:08 PM 40.3400 -82.6275 22° Northeast 223 257 17,100  Level Indianapolis Center
Sun 03:24:09 PM 40.3989 -82.5983 21° North 225 259 17,100  Level Indianapolis Center
Sun 03:25:11 PM 40.4583 -82.5708 19° North 226 260 17,100  Level Indianapolis Center
Sun 03:26:13 PM 40.5197 -82.5556 11° North 224 258 17,100  Level Indianapolis Center
Sun 03:27:15 PM 40.5817 -82.5425 North 223 257 17,100  Level Indianapolis Center
Sun 03:28:17 PM 40.6422 -82.5306 North 220 253 17,100  Level Indianapolis Center
Sun 03:29:18 PM 40.7114 -82.5167 North 213 245 17,100 49 Level Indianapolis Center
Sun 03:30:20 PM 40.7706 -82.5058 North 213 245 17,200  Climbing Indianapolis Center
Sun 03:31:22 PM 40.8289 -82.4964 North 210 242 17,100 -48 Descending Indianapolis Center
Sun 03:32:24 PM 40.8872 -82.4936 North 207 238 17,100 -158 Level Indianapolis Center
Sun 03:33:16 PM 40.9347 -82.5044 350° North 206 237 16,800 -482 Descending Cleveland Center
Sun 03:34:16 PM 41.0014 -82.5117 355° North 214 246 16,200 -550 Descending Cleveland Center
Sun 03:35:16 PM 41.0658 -82.5164 357° North 220 253 15,700 -650 Descending Cleveland Center
Sun 03:36:16 PM 41.1306 -82.5267 353° North 220 253 14,900 -700 Descending Cleveland Center
Sun 03:37:16 PM 41.1928 -82.5339 355° North 225 259 14,300 -700 Descending Cleveland Center
Sun 03:38:16 PM 41.2553 -82.5414 355° North 220 253 13,500 -800 Descending Cleveland Center
Sun 03:39:16 PM 41.3175 -82.5517 353° North 220 253 12,700 -800 Descending Cleveland Center
Sun 03:40:16 PM 41.3800 -82.5617 353° North 220 253 11,900 -800 Descending Cleveland Center
Sun 03:41:16 PM 41.4403 -82.5692 355° North 220 253 11,100 -600 Descending Cleveland Center
Sun 03:42:16 PM 41.4944 -82.5792 352° North 220 253 10,700 -550 Descending Cleveland Center
Sun 03:43:16 PM 41.5525 -82.5864 355° North 220 253 10,000 -650 Descending Cleveland Center
Sun 03:44:16 PM 41.6150 -82.5967 353° North 220 253 9,400 -581 Descending Cleveland Center
Sun 03:44:49 PM 41.6503 -82.6033 352° North 211 243 9,100 -258 Descending Cleveland Center
Sun 03:45:49 PM 41.7064 -82.6164 350° North 198 228 9,000 -50 Descending Cleveland Center
Sun 03:46:50 PM 41.7606 -82.6208 356° North 188 216 9,000  Level Cleveland Center
Sun 03:47:51 PM 41.8125 -82.6308 352° North 185 213 9,000  Level Cleveland Center
Sun 03:48:52 PM 41.8622 -82.6464 347° North 185 213 9,000 -52 Level Cleveland Center
Sun 03:49:47 PM 41.8992 -82.6783 327° Northwest 187 215 8,900 -141 Descending Cleveland Center
Sun 03:50:17 PM 41.9178 -82.6900 335° Northwest 181 208 8,800 -448 Descending Cleveland Center
Sun 03:50:54 PM 41.9567 -82.7164 333° Northwest 197 227 8,400 -555 Descending Cleveland Center
Sun 03:52:16 PM 42.0122 -82.7686 325° Northwest 193 222 7,700 -563 Descending Cleveland Center
Sun 03:53:02 PM 42.0572 -82.8036 330° Northwest 202 232 7,200 -617 Descending Cleveland Center
Sun 03:54:03 PM 42.1089 -82.8278 341° North 198 228 6,600 -493 Descending Cleveland Center
Sun 03:55:16 PM 42.1689 -82.8581 339° North 194 223 6,100 -443 Descending Cleveland Center
Sun 03:56:05 PM 42.2081 -82.8792 338° Northwest 191 220 5,700 -519 Descending Cleveland Center
Sun 03:57:00 PM 42.2514 -82.9003 340° North 186 214 5,200 -198 Descending Cleveland Center
Sun 03:58:00 PM 42.2935 -82.9528 324° Northwest  Level Estimated
Sun 03:59:07 PM 42.3461 -82.9569 324° Northwest 159 183 5,100  Level Cleveland Center
Sun 04:00:08 PM 42.3872 -82.9811 337° Northwest 162 186 5,100 32 Level Cleveland Center
Sun 04:02:16 PM 42.4733 -83.0464 331° Northwest 165 190 5,200 33 Climbing Cleveland Center
Sun 04:03:11 PM 42.5103 -83.0731 332° Northwest 172 198 5,200 -273 Level Cleveland Center
Sun 04:04:06 PM 42.5386 -83.1136 313° West 188 216 4,700 -393 Descending Cleveland Center
Sun 04:05:13 PM 42.5642 -83.1908 294° West 180 207 4,400 -448 Descending Cleveland Center
Sun 04:06:20 PM 42.5875 -83.2567 296° West 192 221 3,700 -609 Descending Cleveland Center
Sun 04:07:21 PM 42.6067 -83.3281 290° West 191 220 3,100 -541 Descending Cleveland Center
Sun 04:08:22 PM 42.6283 -83.3797 300° West 139 160 2,600 -491 Descending Cleveland Center
Sun 04:09:11 PM 42.6358 -83.4169 285° West 131 151 2,200 -600 Descending Cleveland Center
Sun 04:10:12 PM 42.6536 -83.4514 305° West 108 124 1,500 -689 Descending Cleveland Center
Sun 04:12:00 PM 42.6656 -83.4205 62° Northeast  Level Estimated
Sun 04:19:00 PM 42.6656 -83.4205 140° Southeast  Level Estimated

Login

Don't have an account? Register now (free) for customized features, flight alerts, and more!